Time;durP1;ratioP1;P1;durP2;ratioP2;P2;SDS_P1;SDS_P2;PMS_P1;PMS_P2;Temp;Humidity;BMP_temperature;BMP_pressure;BME280_temperature;BME280_humidity;BME280_pressure;Samples;Min_cycle;Max_cycle;Signal;HPM_P1;HPM_P2
2023/08/04 00:00:04;;;;;;;0.67;0.67;;;17.50;1.00;;;;;;5035155;28;20975;-83
2023/08/04 00:02:33;;;;;;;1.57;0.80;;;17.50;1.00;;;;;;5045616;28;20949;-82
2023/08/04 00:05:04;;;;;;;9.70;1.03;;;17.40;1.00;;;;;;5053016;28;20421;-82
2023/08/04 00:07:34;;;;;;;2.50;1.10;;;17.40;1.00;;;;;;5054495;28;20407;-84
2023/08/04 00:10:04;;;;;;;2.40;0.87;;;17.50;1.00;;;;;;5062064;28;20452;-82
2023/08/04 00:12:33;;;;;;;4.10;0.90;;;17.50;1.00;;;;;;5053897;28;20909;-84
2023/08/04 00:15:28;;;;;;;5.53;0.90;;;17.40;1.00;;;;;;5054329;28;21029;-84
2023/08/04 00:22:03;;;;;;;1.00;0.90;;;17.40;1.00;;;;;;5034157;28;20441;-84
2023/08/04 00:24:52;;;;;;;2.20;0.80;;;17.40;1.00;;;;;;5043337;28;20422;-83
2023/08/04 00:27:27;;;;;;;1.53;0.80;;;17.30;1.00;;;;;;5049127;28;20387;-83
2023/08/04 00:33:51;;;;;;;4.73;0.90;;;17.40;1.00;;;;;;5054190;28;20479;-84
2023/08/04 00:46:51;;;;;;;6.53;0.80;;;17.30;1.00;;;;;;5053831;28;20454;-83
2023/08/04 00:52:40;;;;;;;3.33;1.10;;;17.30;1.00;;;;;;5052634;28;20822;-83
2023/08/04 00:55:17;;;;;;;3.97;1.03;;;17.20;1.00;;;;;;5047513;28;20468;-84
2023/08/04 00:58:21;;;;;;;0.90;0.90;;;17.30;1.00;;;;;;5062818;28;20496;-83
2023/08/04 01:00:46;;;;;;;2.50;1.13;;;17.30;1.00;;;;;;5051975;28;20449;-82
2023/08/04 01:03:40;;;;;;;8.20;1.20;;;17.40;1.00;;;;;;5058824;28;20400;-82
2023/08/04 01:06:56;;;;;;;6.00;1.00;;;17.40;1.00;;;;;;5043669;28;20605;-82
2023/08/04 01:09:39;;;;;;;9.43;1.20;;;17.40;1.00;;;;;;5052929;28;20970;-83
2023/08/04 01:12:45;;;;;;;3.90;1.10;;;17.40;1.00;;;;;;5053259;28;20414;-82
2023/08/04 01:18:32;;;;;;;0.90;0.90;;;17.30;1.00;;;;;;5053157;28;20904;-83
2023/08/04 01:21:04;;;;;;;2.53;1.00;;;17.30;1.00;;;;;;5056173;28;20520;-83
2023/08/04 01:23:31;;;;;;;1.77;1.00;;;17.30;1.00;;;;;;5049611;28;20277;-84
2023/08/04 01:25:57;;;;;;;2.53;1.07;;;17.20;1.00;;;;;;5041404;28;20418;-84
2023/08/04 01:28:34;;;;;;;4.43;1.53;;;17.10;1.00;;;;;;5046266;28;20909;-85
2023/08/04 01:31:10;;;;;;;2.80;1.10;;;17.20;1.00;;;;;;5049180;28;20464;-83
2023/08/04 01:33:45;;;;;;;1.60;1.07;;;17.30;1.00;;;;;;5052711;28;20397;-83
2023/08/04 01:37:03;;;;;;;1.43;1.20;;;17.30;1.00;;;;;;5041994;28;20457;-84
2023/08/04 01:39:45;;;;;;;8.23;1.50;;;17.30;1.00;;;;;;5039431;28;20457;-84
2023/08/04 01:45:33;;;;;;;1.63;1.27;;;17.40;1.00;;;;;;5037249;28;20889;-82
2023/08/04 01:51:21;;;;;;;3.70;1.30;;;17.30;1.00;;;;;;5049588;28;20185;-82
2023/08/04 01:57:21;;;;;;;5.90;1.40;;;17.40;1.00;;;;;;5049907;28;20674;-84
2023/08/04 01:59:47;;;;;;;8.23;1.10;;;17.40;1.00;;;;;;5065269;28;20526;-83
2023/08/04 02:09:11;;;;;;;5.27;1.53;;;17.30;1.00;;;;;;5056176;28;20416;-82
2023/08/04 02:18:20;;;;;;;1.20;1.10;;;17.20;1.00;;;;;;5056563;28;20425;-84
2023/08/04 02:24:08;;;;;;;1.43;1.33;;;17.30;1.00;;;;;;5045398;28;20182;-82
2023/08/04 02:26:33;;;;;;;1.70;1.40;;;17.30;1.00;;;;;;5053830;28;20752;-82
2023/08/04 02:29:21;;;;;;;5.10;1.50;;;17.40;1.00;;;;;;5048563;28;20182;-82
2023/08/04 02:32:16;;;;;;;3.23;1.63;;;17.30;1.00;;;;;;5054897;28;20232;-82
2023/08/04 02:35:33;;;;;;;11.90;1.50;;;17.40;1.00;;;;;;5055872;28;20526;-82
2023/08/04 02:42:15;;;;;;;1.57;1.47;;;17.40;1.00;;;;;;5056192;28;20450;-82
2023/08/04 02:48:03;;;;;;;2.30;1.40;;;17.40;1.00;;;;;;5056004;28;20470;-83
2023/08/04 02:53:51;;;;;;;3.53;1.50;;;17.30;1.00;;;;;;5042993;28;20235;-84
2023/08/04 03:00:33;;;;;;;14.93;1.67;;;17.30;1.00;;;;;;5055035;28;20433;-82
2023/08/04 03:06:21;;;;;;;1.57;1.47;;;17.30;1.00;;;;;;5045709;28;20754;-84
2023/08/04 03:08:46;;;;;;;15.77;2.30;;;17.30;1.00;;;;;;5040685;28;20452;-83
2023/08/04 03:11:21;;;;;;;5.20;1.90;;;17.30;1.00;;;;;;5042723;28;20218;-84
2023/08/04 03:17:09;;;;;;;3.73;1.83;;;17.30;1.00;;;;;;5054267;28;20394;-82
2023/08/04 03:23:09;;;;;;;2.90;1.53;;;17.30;1.00;;;;;;5054659;28;20213;-85
2023/08/04 03:25:39;;;;;;;8.20;1.80;;;17.30;1.00;;;;;;5054553;28;20399;-84
2023/08/04 03:31:27;;;;;;;3.60;1.63;;;17.20;1.00;;;;;;5037691;28;20409;-85
2023/08/04 03:34:39;;;;;;;7.40;2.60;;;17.20;1.00;;;;;;5046265;28;20422;-83
2023/08/04 03:41:21;;;;;;;9.23;1.90;;;17.20;1.00;;;;;;5049989;28;20521;-85
2023/08/04 03:43:46;;;;;;;3.13;1.93;;;17.20;1.00;;;;;;5033809;28;20859;-82
2023/08/04 03:49:34;;;;;;;3.83;2.23;;;17.20;1.00;;;;;;5052621;28;20226;-84
2023/08/04 03:52:21;;;;;;;4.30;2.47;;;17.20;1.00;;;;;;5035243;28;20399;-84
2023/08/04 03:54:47;;;;;;;4.30;2.37;;;17.20;1.00;;;;;;5045477;28;20190;-82
2023/08/04 03:57:12;;;;;;;9.90;2.13;;;17.20;1.00;;;;;;5049499;28;20419;-85
2023/08/04 03:59:38;;;;;;;11.40;2.50;;;18.40;1.00;;;;;;5045580;28;20206;-85
2023/08/04 04:02:39;;;;;;;2.73;2.30;;;17.30;1.00;;;;;;5050715;28;20182;-85
2023/08/04 04:05:09;;;;;;;5.37;2.80;;;17.30;1.00;;;;;;5039655;28;20178;-85
2023/08/04 04:11:21;;;;;;;4.17;3.33;;;17.30;1.00;;;;;;5050726;28;20442;-85
2023/08/04 04:13:57;;;;;;;9.40;4.10;;;17.20;1.00;;;;;;5051980;28;20811;-84
2023/08/04 04:20:09;;;;;;;11.70;4.20;;;17.30;1.00;;;;;;5052891;28;20463;-85
2023/08/04 04:22:53;;;;;;;5.00;4.33;;;17.30;1.00;;;;;;5043836;28;20427;-82
2023/08/04 04:25:51;;;;;;;5.90;4.53;;;17.30;1.00;;;;;;5053896;28;20398;-82
2023/08/04 04:29:03;;;;;;;15.67;3.90;;;17.30;1.00;;;;;;5049331;28;20948;-84
2023/08/04 04:31:29;;;;;;;12.40;5.20;;;17.30;1.00;;;;;;5036893;28;20422;-83
2023/08/04 04:34:21;;;;;;;11.30;4.43;;;17.40;1.00;;;;;;5054068;28;20416;-85
2023/08/04 04:37:15;;;;;;;7.63;4.97;;;17.40;1.00;;;;;;5033300;28;20179;-85
2023/08/04 04:39:41;;;;;;;8.20;4.73;;;17.40;1.00;;;;;;5049621;28;20492;-85
2023/08/04 04:42:51;;;;;;;16.53;4.50;;;17.50;1.00;;;;;;5049562;28;20450;-82
2023/08/04 04:48:51;;;;;;;7.33;4.50;;;17.50;1.00;;;;;;5033768;28;20375;-83
2023/08/04 04:51:51;;;;;;;5.37;4.80;;;17.50;1.00;;;;;;5051436;28;20908;-85
2023/08/04 04:54:22;;;;;;;7.37;4.53;;;17.50;1.00;;;;;;5052898;28;20460;-85
2023/08/04 04:56:50;;;;;;;6.10;4.97;;;17.50;1.00;;;;;;5047542;28;20443;-82
2023/08/04 04:59:21;;;;;;;10.90;5.40;;;17.50;1.00;;;;;;5051797;28;20438;-85
2023/08/04 05:05:09;;;;;;;9.50;4.97;;;17.50;1.00;;;;;;5045576;28;20370;-82
2023/08/04 05:07:51;;;;;;;13.87;5.73;;;17.60;1.00;;;;;;5051214;28;20532;-82
2023/08/04 05:10:51;;;;;;;8.87;5.50;;;17.60;1.00;;;;;;5045432;28;20876;-83
2023/08/04 05:13:21;;;;;;;10.80;5.30;;;17.60;1.00;;;;;;5060664;28;20520;-82
2023/08/04 05:16:21;;;;;;;9.50;5.53;;;17.60;1.00;;;;;;5052569;28;20433;-84
2023/08/04 05:19:09;;;;;;;9.30;5.60;;;17.70;1.00;;;;;;5051912;28;20429;-84
2023/08/04 05:25:21;;;;;;;7.40;5.03;;;17.70;1.00;;;;;;5049616;28;20420;-85
2023/08/04 05:28:21;;;;;;;12.10;5.30;;;17.70;1.00;;;;;;5059778;28;20425;-82
2023/08/04 05:31:21;;;;;;;12.33;5.50;;;17.70;1.00;;;;;;5046561;28;20947;-82
2023/08/04 05:34:21;;;;;;;9.97;5.87;;;17.80;1.00;;;;;;5051452;28;20459;-81
2023/08/04 05:37:21;;;;;;;10.93;5.77;;;17.80;1.00;;;;;;5049955;28;20428;-81
2023/08/04 05:39:51;;;;;;;11.77;5.20;;;17.80;1.00;;;;;;5052336;28;20540;-82
2023/08/04 05:42:24;;;;;;;8.70;5.10;;;17.90;1.00;;;;;;5056935;28;20916;-83
2023/08/04 05:44:58;;;;;;;10.30;6.03;;;18.00;1.00;;;;;;5047043;28;20445;-82
2023/08/04 05:47:33;;;;;;;9.70;5.73;;;17.90;1.00;;;;;;5045768;28;20420;-82
2023/08/04 05:50:21;;;;;;;10.43;5.73;;;18.00;1.00;;;;;;5055775;28;21021;-82
2023/08/04 05:52:51;;;;;;;7.00;5.13;;;18.10;1.00;;;;;;5055746;28;20395;-83
2023/08/04 05:55:22;;;;;;;13.10;5.83;;;18.10;1.00;;;;;;5056829;28;20801;-85
2023/08/04 05:58:21;;;;;;;10.50;6.07;;;18.20;1.00;;;;;;5067029;28;20431;-84
2023/08/04 06:04:33;;;;;;;10.87;5.20;;;18.30;1.00;;;;;;5054234;28;20396;-84
2023/08/04 06:07:03;;;;;;;16.10;8.17;;;18.50;1.00;;;;;;5049405;28;20526;-84
2023/08/04 06:09:29;;;;;;;7.97;5.83;;;18.50;1.00;;;;;;5053266;28;20453;-84
2023/08/04 06:11:59;;;;;;;11.80;6.30;;;18.60;1.00;;;;;;5054936;28;20537;-77
2023/08/04 06:14:27;;;;;;;8.80;6.70;;;18.80;1.00;;;;;;5046765;28;20237;-80
2023/08/04 06:20:33;;;;;;;12.30;6.90;;;19.00;1.00;;;;;;5055697;28;20850;-77
2023/08/04 06:23:21;;;;;;;10.83;5.90;;;19.20;1.00;;;;;;5043199;28;20442;-77
2023/08/04 06:25:51;;;;;;;10.13;5.77;;;19.30;1.00;;;;;;5055975;28;20418;-80
2023/08/04 06:28:21;;;;;;;11.10;7.00;;;19.60;1.00;;;;;;5052994;28;20415;-80
2023/08/04 06:31:21;;;;;;;11.50;6.57;;;19.60;1.00;;;;;;5064681;28;20510;-80
2023/08/04 06:33:57;;;;;;;11.60;6.10;;;19.80;1.00;;;;;;5056039;28;20486;-80
2023/08/04 06:36:27;;;;;;;10.20;6.23;;;19.90;1.00;;;;;;5053021;28;20849;-78
2023/08/04 06:39:22;;;;;;;10.17;6.57;;;20.10;1.00;;;;;;5051597;28;20957;-77
2023/08/04 06:41:52;;;;;;;10.63;6.57;;;20.20;1.00;;;;;;5055505;28;20529;-80
2023/08/04 06:44:21;;;;;;;14.03;6.13;;;20.30;1.00;;;;;;5051098;28;20879;-77
2023/08/04 06:46:51;;;;;;;9.90;6.20;;;20.40;1.00;;;;;;5055967;28;20402;-77
2023/08/04 06:49:22;;;;;;;8.97;6.40;;;20.40;1.00;;;;;;5053931;28;20439;-80
2023/08/04 06:51:51;;;;;;;10.53;6.43;;;20.50;1.00;;;;;;5048615;28;20483;-80
2023/08/04 06:54:21;;;;;;;8.13;5.97;;;20.50;1.00;;;;;;5050826;28;20420;-80
2023/08/04 06:56:47;;;;;;;15.20;6.07;;;20.50;1.00;;;;;;5047088;28;20397;-80
2023/08/04 06:59:22;;;;;;;10.53;6.27;;;20.50;1.00;;;;;;5053019;28;20454;-78
2023/08/04 07:01:52;;;;;;;9.17;6.17;;;20.50;1.00;;;;;;5055411;28;20169;-80
2023/08/04 07:04:21;;;;;;;15.43;6.90;;;20.40;1.00;;;;;;5054242;28;20427;-77
2023/08/04 07:06:56;;;;;;;8.97;6.40;;;20.40;1.00;;;;;;5050048;28;20435;-77
2023/08/04 07:09:22;;;;;;;8.33;6.73;;;20.50;1.00;;;;;;5053799;28;20435;-77
2023/08/04 07:11:52;;;;;;;11.70;6.70;;;20.50;1.00;;;;;;5043075;28;20409;-80
2023/08/04 07:14:39;;;;;;;10.20;6.10;;;20.60;1.00;;;;;;5050509;28;20653;-77
2023/08/04 07:20:27;;;;;;;9.80;6.70;;;20.70;1.00;;;;;;5037693;28;21035;-80
2023/08/04 07:26:14;;;;;;;9.37;7.00;;;20.90;1.00;;;;;;5039631;28;20482;-80
2023/08/04 07:32:45;;;;;;;7.00;6.00;;;21.30;1.00;;;;;;5041858;28;20232;-80
2023/08/04 07:35:27;;;;;;;11.23;6.37;;;21.30;1.00;;;;;;5054933;28;20907;-80
2023/08/04 07:38:45;;;;;;;7.40;6.43;;;21.50;1.00;;;;;;5046138;28;21001;-80
2023/08/04 07:41:20;;;;;;;9.03;6.10;;;21.60;1.00;;;;;;5041216;28;20953;-80
2023/08/04 07:43:46;;;;;;;9.17;6.40;;;21.70;1.00;;;;;;5055264;28;20412;-80
2023/08/04 07:46:40;;;;;;;11.17;6.90;;;21.80;1.00;;;;;;5041502;28;20489;-77
2023/08/04 07:49:06;;;;;;;9.77;6.60;;;21.90;1.00;;;;;;5053945;28;20174;-80
2023/08/04 07:51:51;;;;;;;11.47;6.37;;;21.90;1.00;;;;;;5054072;28;20436;-77
2023/08/04 07:54:17;;;;;;;8.80;6.30;;;21.90;1.00;;;;;;5054775;28;20222;-83
2023/08/04 07:56:43;;;;;;;12.60;6.17;;;22.00;1.00;;;;;;5050322;28;20410;-85
2023/08/04 07:59:45;;;;;;;11.30;7.10;;;21.90;1.00;;;;;;5045278;28;20879;-83
2023/08/04 08:05:39;;;;;;;10.33;6.40;;;22.00;1.00;;;;;;5054485;28;20360;-83
2023/08/04 08:11:26;;;;;;;11.30;7.00;;;22.20;1.00;;;;;;5034505;28;20422;-83
2023/08/04 08:17:21;;;;;;;10.70;5.87;;;22.10;1.00;;;;;;5040005;28;20213;-86
2023/08/04 08:23:10;;;;;;;10.57;6.67;;;22.10;1.00;;;;;;5054623;28;20398;-86
2023/08/04 08:28:57;;;;;;;9.23;6.50;;;22.10;1.00;;;;;;5054290;28;20410;-86
2023/08/04 08:35:21;;;;;;;12.20;6.57;;;22.10;1.00;;;;;;5037391;28;20224;-79
2023/08/04 08:41:27;;;;;;;11.27;6.73;;;22.30;1.00;;;;;;5053662;28;20887;-78
2023/08/04 08:47:17;;;;;;;7.90;6.40;;;22.80;1.00;;;;;;5035819;28;20403;-78
2023/08/04 08:50:00;;;;;;;12.33;6.53;;;22.90;1.00;;;;;;5043568;28;20439;-78
2023/08/04 08:52:30;;;;;;;12.07;6.53;;;23.00;1.00;;;;;;5051575;28;20430;-79
2023/08/04 08:55:45;;;;;;;12.77;6.57;;;23.10;1.00;;;;;;5040392;28;21012;-79
2023/08/04 09:01:34;;;;;;;10.73;6.53;;;23.20;1.00;;;;;;5053207;28;20419;-80
2023/08/04 09:08:03;;;;;;;8.57;6.50;;;23.30;1.00;;;;;;5052950;28;20398;-80
2023/08/04 09:17:31;;;;;;;12.70;7.00;;;23.10;1.00;;;;;;5045087;28;20466;-79
2023/08/04 09:19:58;;;;;;;11.10;6.70;;;23.00;1.00;;;;;;5042647;28;20475;-80
2023/08/04 09:42:36;;;;;;;18.57;7.27;;;21.80;1.00;;;;;;5046916;28;20460;-79
2023/08/04 09:45:04;;;;;;;14.07;6.80;;;21.80;1.00;;;;;;5051574;28;20408;-77
2023/08/04 09:47:33;;;;;;;12.60;6.97;;;21.80;1.00;;;;;;5052779;28;20512;-77
2023/08/04 09:50:10;;;;;;;10.50;7.03;;;21.80;1.00;;;;;;5039155;28;20420;-77
2023/08/04 09:53:15;;;;;;;13.03;7.50;;;21.80;1.00;;;;;;5049692;28;20536;-77
2023/08/04 09:55:46;;;;;;;16.60;7.03;;;21.70;1.00;;;;;;4991032;28;20775;-77
2023/08/04 09:58:11;;;;;;;11.00;6.20;;;21.70;1.00;;;;;;4980666;28;20436;-77
2023/08/04 10:00:52;;;;;;;11.73;6.77;;;21.70;1.00;;;;;;4979683;28;20447;-77
2023/08/04 10:03:36;;;;;;;15.23;6.77;;;21.80;1.00;;;;;;4989012;28;20237;-77
2023/08/04 10:06:03;;;;;;;10.00;6.30;;;21.70;1.00;;;;;;4972204;28;20428;-77
2023/08/04 10:08:48;;;;;;;11.80;6.30;;;21.60;1.00;;;;;;4972737;28;20475;-77
2023/08/04 10:11:14;;;;;;;10.97;6.73;;;21.60;1.00;;;;;;4991011;28;20445;-77
2023/08/04 10:14:15;;;;;;;11.57;6.70;;;21.50;1.00;;;;;;4991002;28;20474;-77
2023/08/04 10:17:21;;;;;;;9.80;7.27;;;21.50;1.00;;;;;;4986581;28;20955;-80
2023/08/04 10:20:09;;;;;;;12.53;7.30;;;21.50;1.00;;;;;;4963807;28;20984;-80
2023/08/04 10:29:19;;;;;;;11.90;6.17;;;21.70;1.00;;;;;;5007892;28;20404;-80
2023/08/04 10:32:16;;;;;;;11.33;6.73;;;21.90;1.00;;;;;;5058537;28;20424;-80
2023/08/04 10:38:04;;;;;;;8.93;6.27;;;22.20;1.00;;;;;;5038383;28;20381;-80
2023/08/04 10:40:40;;;;;;;11.00;6.40;;;22.60;1.00;;;;;;5046892;28;20463;-81
2023/08/04 10:43:20;;;;;;;15.10;6.30;;;22.90;1.00;;;;;;5041895;28;20174;-81
2023/08/04 10:46:03;;;;;;;9.43;4.90;;;23.40;1.00;;;;;;5055996;28;20411;-77
2023/08/04 10:48:40;;;;;;;7.70;5.07;;;23.40;1.00;;;;;;5036031;28;20408;-77
2023/08/04 10:51:25;;;;;;;12.30;4.93;;;23.70;1.00;;;;;;5047871;28;20446;-76
2023/08/04 10:53:51;;;;;;;7.33;3.90;;;23.90;1.00;;;;;;5054949;28;20430;-77
2023/08/04 10:56:22;;;;;;;8.57;4.00;;;24.00;1.00;;;;;;5051304;28;20763;-77
2023/08/04 10:58:48;;;;;;;6.90;3.70;;;24.10;1.00;;;;;;5042951;28;20194;-76
2023/08/04 11:01:16;;;;;;;3.80;3.50;;;24.20;1.00;;;;;;5055583;28;20449;-81
2023/08/04 11:07:03;;;;;;;4.87;2.53;;;24.70;1.00;;;;;;5049206;28;20452;-80
2023/08/04 11:12:52;;;;;;;6.07;2.63;;;24.90;1.00;;;;;;5049231;28;20934;-80
2023/08/04 11:15:40;;;;;;;4.67;3.20;;;25.10;1.00;;;;;;5054550;28;20444;-80
2023/08/04 11:21:33;;;;;;;5.33;3.03;;;25.70;1.00;;;;;;5053849;28;20473;-82
2023/08/04 11:27:47;;;;;;;3.20;2.50;;;25.80;1.00;;;;;;5035313;28;20453;-82
2023/08/04 11:30:22;;;;;;;4.40;2.30;;;25.60;1.00;;;;;;5040144;28;20435;-81
2023/08/04 11:32:50;;;;;;;4.93;2.37;;;25.80;1.00;;;;;;5047092;28;20438;-76
2023/08/04 11:35:16;;;;;;;2.40;1.90;;;25.80;1.00;;;;;;5048243;28;20424;-76
2023/08/04 11:37:41;;;;;;;3.40;2.17;;;25.70;1.00;;;;;;5053403;28;20423;-77
2023/08/04 11:40:21;;;;;;;3.03;2.43;;;25.80;1.00;;;;;;5051112;28;20801;-79
2023/08/04 11:42:52;;;;;;;5.40;2.77;;;25.80;1.00;;;;;;5046829;28;20174;-76
2023/08/04 11:45:18;;;;;;;5.00;2.47;;;26.00;1.00;;;;;;5047836;28;20505;-79
2023/08/04 11:48:21;;;;;;;6.27;2.70;;;26.10;1.00;;;;;;5049984;28;20560;-78
2023/08/04 11:51:07;;;;;;;2.13;1.93;;;26.20;1.00;;;;;;5047593;28;20519;-77
2023/08/04 11:53:44;;;;;;;3.57;1.83;;;26.00;1.00;;;;;;5050034;28;20459;-77
2023/08/04 11:56:15;;;;;;;4.20;2.07;;;25.90;1.00;;;;;;5050214;28;20438;-78
2023/08/04 11:59:08;;;;;;;5.10;2.20;;;25.60;1.00;;;;;;5054482;28;20433;-78
2023/08/04 12:02:09;;;;;;;3.00;1.90;;;25.60;1.00;;;;;;5034534;28;20767;-78
2023/08/04 12:05:12;;;;;;;3.03;2.60;;;25.60;1.00;;;;;;5040271;28;20427;-77
2023/08/04 12:07:53;;;;;;;4.00;3.13;;;25.50;1.00;;;;;;4979969;28;20931;-78
2023/08/04 12:10:23;;;;;;;6.17;3.17;;;25.20;1.00;;;;;;4990172;28;20438;-78
2023/08/04 12:12:50;;;;;;;10.43;3.03;;;25.10;1.00;;;;;;4990658;28;20419;-77
2023/08/04 12:15:53;;;;;;;3.80;2.80;;;25.00;1.00;;;;;;4968956;28;21078;-78
2023/08/04 12:18:28;;;;;;;3.00;2.80;;;24.90;1.00;;;;;;4975112;28;20405;-77
2023/08/04 12:21:27;;;;;;;5.67;2.90;;;24.90;1.00;;;;;;4988582;28;21072;-78
2023/08/04 12:23:53;;;;;;;5.30;3.50;;;25.10;1.00;;;;;;4992833;28;20516;-77
2023/08/04 12:26:27;;;;;;;5.80;2.73;;;24.90;1.00;;;;;;4990924;28;20468;-78
2023/08/04 12:35:36;;;;;;;3.47;2.60;;;24.80;1.00;;;;;;4992225;28;20445;-83
2023/08/04 12:38:04;;;;;;;4.20;2.77;;;24.60;1.00;;;;;;4988518;28;20435;-82
2023/08/04 12:40:33;;;;;;;4.67;2.60;;;24.60;1.00;;;;;;4993832;28;20677;-82
2023/08/04 12:43:04;;;;;;;3.33;2.33;;;24.80;1.00;;;;;;5053525;28;20504;-82
2023/08/04 12:45:34;;;;;;;3.43;2.00;;;25.00;1.00;;;;;;5049832;28;20437;-82
2023/08/04 12:48:28;;;;;;;5.77;2.83;;;25.00;1.00;;;;;;5046702;28;20420;-82
2023/08/04 12:50:54;;;;;;;3.47;2.50;;;25.40;1.00;;;;;;5051644;28;20467;-82
2023/08/04 12:53:20;;;;;;;2.17;2.00;;;25.40;1.00;;;;;;5053324;28;20504;-82
2023/08/04 12:55:47;;;;;;;4.13;2.00;;;25.40;1.00;;;;;;5055756;28;20436;-82
2023/08/04 13:01:34;;;;;;;12.80;2.60;;;26.30;1.00;;;;;;5049975;28;20439;-78
2023/08/04 13:04:10;;;;;;;2.37;1.77;;;26.30;1.00;;;;;;5049099;28;21386;-78
2023/08/04 13:06:35;;;;;;;8.07;2.20;;;26.40;1.00;;;;;;5049676;28;20666;-79
2023/08/04 13:09:01;;;;;;;3.10;2.40;;;26.40;1.00;;;;;;5035124;28;20436;-78
2023/08/04 13:11:26;;;;;;;4.70;2.20;;;26.50;1.00;;;;;;5046837;28;20629;-78
2023/08/04 13:13:52;;;;;;;7.10;2.53;;;26.60;1.00;;;;;;5048522;28;20570;-78
2023/08/04 13:16:18;;;;;;;2.87;2.20;;;26.70;1.00;;;;;;5042300;28;20244;-78
2023/08/04 13:18:44;;;;;;;3.57;2.50;;;26.80;1.00;;;;;;5040075;28;20253;-82
2023/08/04 13:21:09;;;;;;;2.33;2.13;;;26.90;1.00;;;;;;5050497;28;20502;-82
2023/08/04 13:23:35;;;;;;;3.43;2.10;;;27.00;1.00;;;;;;5037669;28;20188;-82
2023/08/04 13:26:05;;;;;;;1.90;1.80;;;27.00;1.00;;;;;;5045306;28;20589;-82
2023/08/04 13:28:34;;;;;;;4.00;2.60;;;27.00;1.00;;;;;;5038829;28;20186;-82
2023/08/04 13:31:02;;;;;;;1.90;1.80;;;27.20;1.00;;;;;;5050790;28;20466;-82
2023/08/04 13:33:28;;;;;;;2.93;2.63;;;27.30;1.00;;;;;;5049964;28;20573;-83
2023/08/04 13:35:54;;;;;;;4.30;2.50;;;27.40;1.00;;;;;;5039025;28;20421;-84
2023/08/04 13:42:21;;;;;;;6.30;3.00;;;27.60;1.00;;;;;;5047578;28;20431;-82
2023/08/04 13:44:52;;;;;;;15.10;3.07;;;27.70;1.00;;;;;;5052241;28;20467;-82
2023/08/04 13:47:34;;;;;;;2.53;2.10;;;27.60;1.00;;;;;;5053427;28;20452;-81
2023/08/04 13:50:21;;;;;;;2.30;2.07;;;27.50;1.00;;;;;;5052964;28;20402;-82
2023/08/04 13:59:31;;;;;;;4.50;2.37;;;27.80;1.00;;;;;;5052140;28;20486;-82
2023/08/04 14:02:10;;;;;;;3.57;2.17;;;27.80;1.00;;;;;;5054667;28;20430;-82
2023/08/04 14:08:02;;;;;;;2.77;1.70;;;28.20;1.00;;;;;;5051281;28;20466;-81
2023/08/04 14:10:27;;;;;;;2.90;2.03;;;28.40;1.00;;;;;;5055658;28;20932;-82
2023/08/04 14:12:58;;;;;;;3.23;2.20;;;28.60;1.00;;;;;;5049396;28;20425;-80
2023/08/04 14:15:25;;;;;;;8.23;2.20;;;28.50;1.00;;;;;;5044540;28;20779;-82
2023/08/04 14:17:50;;;;;;;5.67;2.80;;;28.60;1.00;;;;;;5048781;28;20429;-81
2023/08/04 14:20:22;;;;;;;3.03;2.17;;;28.50;1.00;;;;;;5053471;28;20806;-81
2023/08/04 14:23:03;;;;;;;2.43;2.23;;;28.20;1.00;;;;;;5052591;28;20262;-81
2023/08/04 14:32:34;;;;;;;2.60;2.40;;;28.40;1.00;;;;;;5045863;28;20443;-82
2023/08/04 14:35:16;;;;;;;2.87;2.10;;;28.60;1.00;;;;;;5055390;28;20927;-77
2023/08/04 14:37:45;;;;;;;4.90;2.23;;;28.80;1.00;;;;;;5051293;28;20421;-76
2023/08/04 14:40:27;;;;;;;3.70;2.67;;;28.80;1.00;;;;;;5046921;28;20967;-76
2023/08/04 14:42:53;;;;;;;7.20;2.37;;;28.80;1.00;;;;;;5045550;28;20423;-77
2023/08/04 14:45:19;;;;;;;3.60;2.40;;;28.70;1.00;;;;;;5054722;28;20958;-77
2023/08/04 14:51:09;;;;;;;8.23;2.10;;;28.50;1.00;;;;;;5044812;28;20196;-80
2023/08/04 15:00:19;;;;;;;3.10;2.33;;;28.40;1.00;;;;;;5053584;28;20487;-80
2023/08/04 15:02:49;;;;;;;4.17;2.70;;;28.00;1.00;;;;;;5060467;28;20433;-80
2023/08/04 15:08:46;;;;;;;7.20;2.80;;;28.00;1.00;;;;;;5054957;28;20432;-81
2023/08/04 15:17:59;;;;;;;3.30;2.30;;;27.80;1.00;;;;;;5055702;28;20479;-82
2023/08/04 15:27:09;;;;;;;3.60;2.50;;;30.30;1.00;;;;;;5047861;28;20396;-81
2023/08/04 15:36:18;;;;;;;3.53;2.37;;;29.60;1.00;;;;;;5042870;28;20409;-82
2023/08/04 15:42:06;;;;;;;6.80;2.80;;;28.40;1.00;;;;;;5054207;28;20683;-81
2023/08/04 15:51:16;;;;;;;9.97;3.10;;;26.80;1.00;;;;;;5054515;28;20397;-78
2023/08/04 15:53:48;;;;;;;5.83;3.30;;;26.20;1.00;;;;;;5051196;28;20925;-77
2023/08/04 15:56:33;;;;;;;4.60;2.60;;;25.90;1.00;;;;;;5046509;28;20902;-78
2023/08/04 15:59:17;;;;;;;7.23;2.70;;;25.50;1.00;;;;;;5043592;28;20502;-77
2023/08/04 16:01:46;;;;;;;8.40;3.00;;;25.20;1.00;;;;;;5054331;28;21026;-77
2023/08/04 16:04:28;;;;;;;12.43;3.97;;;24.60;1.00;;;;;;5044294;28;20975;-80
2023/08/04 16:06:57;;;;;;;5.13;3.10;;;24.60;1.00;;;;;;5053500;28;20411;-82
2023/08/04 16:09:23;;;;;;;8.20;3.50;;;24.10;1.00;;;;;;5054797;28;20423;-83
2023/08/04 16:18:35;;;;;;;14.47;3.63;;;23.50;1.00;;;;;;5042931;28;20393;-79
2023/08/04 16:21:27;;;;;;;10.17;3.40;;;23.40;1.00;;;;;;5054145;28;20446;-80
2023/08/04 16:27:15;;;;;;;7.90;3.40;;;23.00;1.00;;;;;;5054149;28;20408;-80
2023/08/04 16:29:58;;;;;;;5.63;3.13;;;22.80;1.00;;;;;;5039901;28;20433;-81
2023/08/04 16:32:28;;;;;;;9.13;4.10;;;22.40;1.00;;;;;;5053319;28;20180;-78
2023/08/04 16:34:58;;;;;;;8.27;3.93;;;22.20;1.00;;;;;;5053658;28;20434;-76
2023/08/04 16:37:34;;;;;;;8.07;4.27;;;21.90;1.00;;;;;;5053328;28;20836;-76
2023/08/04 16:39:59;;;;;;;7.53;4.00;;;21.70;1.00;;;;;;5053888;28;20474;-76
2023/08/04 16:42:28;;;;;;;7.80;4.50;;;21.60;1.00;;;;;;5043416;28;20522;-79
2023/08/04 16:45:10;;;;;;;13.57;5.17;;;21.50;1.00;;;;;;5051859;28;20521;-79
2023/08/04 16:51:00;;;;;;;7.87;5.10;;;21.30;1.00;;;;;;5053908;28;20906;-81
2023/08/04 16:53:34;;;;;;;9.60;4.90;;;21.20;1.00;;;;;;5042642;28;20870;-76
2023/08/04 16:59:21;;;;;;;6.80;4.00;;;21.00;1.00;;;;;;5033210;28;20405;-77
2023/08/04 17:01:47;;;;;;;15.13;5.00;;;20.90;1.00;;;;;;5043856;28;20430;-77
2023/08/04 17:08:27;;;;;;;9.07;4.90;;;20.70;1.00;;;;;;5047171;28;20216;-80
2023/08/04 17:14:15;;;;;;;13.60;5.80;;;20.40;1.00;;;;;;5042359;28;20440;-81
2023/08/04 17:17:08;;;;;;;11.60;4.87;;;20.30;1.00;;;;;;5039502;28;20410;-82
2023/08/04 17:30:27;;;;;;;8.03;5.10;;;19.80;1.00;;;;;;5053162;28;20924;-78
2023/08/04 17:33:21;;;;;;;9.40;4.90;;;19.70;1.00;;;;;;5052812;28;20511;-82
2023/08/04 17:36:09;;;;;;;6.63;4.60;;;19.70;1.00;;;;;;5035496;28;20411;-78
2023/08/04 17:38:46;;;;;;;7.60;4.70;;;19.70;1.00;;;;;;5051258;28;20473;-77
2023/08/04 17:41:27;;;;;;;6.40;4.67;;;19.80;1.00;;;;;;5044277;28;20446;-78
2023/08/04 17:43:53;;;;;;;11.57;5.00;;;19.90;1.00;;;;;;5056644;28;20842;-79
2023/08/04 17:53:10;;;;;;;12.33;5.00;;;20.10;1.00;;;;;;5049447;28;20429;-79
2023/08/04 17:55:39;;;;;;;8.80;4.90;;;20.10;1.00;;;;;;5055960;28;20930;-81
2023/08/04 17:58:27;;;;;;;5.30;4.43;;;20.10;1.00;;;;;;5055685;28;20401;-78
2023/08/04 18:01:27;;;;;;;10.10;4.47;;;20.10;1.00;;;;;;5040853;28;20482;-78
2023/08/04 18:03:53;;;;;;;10.07;5.20;;;20.00;1.00;;;;;;5039704;28;20511;-77
2023/08/04 18:06:56;;;;;;;15.60;5.37;;;20.00;1.00;;;;;;5050400;28;20515;-81
2023/08/04 18:09:40;;;;;;;9.30;5.10;;;19.90;1.00;;;;;;5056661;28;20649;-82
2023/08/04 18:18:50;;;;;;;10.83;4.70;;;19.70;1.00;;;;;;5040609;28;20797;-81
2023/08/04 18:21:34;;;;;;;10.40;4.90;;;19.70;1.00;;;;;;5056526;28;20424;-79
2023/08/04 18:27:27;;;;;;;9.80;4.90;;;19.70;1.00;;;;;;5037157;28;20403;-78
2023/08/04 18:30:05;;;;;;;9.20;5.20;;;19.70;1.00;;;;;;5056241;28;20912;-78
2023/08/04 18:32:34;;;;;;;20.90;5.30;;;19.70;1.00;;;;;;5052322;28;20967;-79
2023/08/04 18:35:45;;;;;;;9.87;5.00;;;19.70;1.00;;;;;;5047235;28;20440;-79
2023/08/04 18:38:39;;;;;;;9.10;5.50;;;19.60;1.00;;;;;;5046668;28;20421;-79
2023/08/04 18:44:27;;;;;;;12.83;5.40;;;19.50;1.00;;;;;;5044067;28;20414;-77
2023/08/04 18:46:52;;;;;;;11.33;5.90;;;19.40;1.00;;;;;;5054109;28;20918;-76
2023/08/04 18:49:46;;;;;;;13.37;5.93;;;19.40;1.00;;;;;;5054442;28;20193;-78
2023/08/04 18:55:40;;;;;;;15.20;5.30;;;19.40;1.00;;;;;;5054897;28;20780;-77
2023/08/04 18:58:22;;;;;;;8.50;5.30;;;19.40;1.00;;;;;;5054862;28;20439;-78
2023/08/04 19:01:27;;;;;;;14.20;6.20;;;19.30;1.00;;;;;;5048896;28;20953;-77
2023/08/04 19:04:15;;;;;;;11.90;5.70;;;19.20;1.00;;;;;;5052440;28;20815;-77
2023/08/04 19:06:46;;;;;;;11.93;5.50;;;19.10;1.00;;;;;;5052242;28;20438;-77
2023/08/04 19:09:16;;;;;;;14.00;6.43;;;19.10;1.00;;;;;;5055016;28;20486;-78
2023/08/04 19:11:52;;;;;;;16.13;5.97;;;19.00;1.00;;;;;;5051430;28;20405;-78
2023/08/04 19:17:39;;;;;;;9.47;6.00;;;18.90;1.00;;;;;;5038377;28;20433;-77
2023/08/04 19:23:27;;;;;;;22.63;6.70;;;18.80;1.00;;;;;;5047176;28;20234;-77
2023/08/04 19:26:04;;;;;;;12.00;5.90;;;18.70;1.00;;;;;;5055015;28;20427;-77
2023/08/04 19:32:15;;;;;;;14.13;6.10;;;18.70;1.00;;;;;;5035089;28;20399;-78